sensor_id;sensor_type;location;lat;lon;timestamp;noise_LAeq;noise_LA_min;noise_LA_max;noise_LA01;noise_LA95
46584;Laerm;32309;48.858;8.252;2023-03-01T00:00:22;54.19;42.65;77.14;;
46584;Laerm;32309;48.858;8.252;2023-03-01T00:02:22;47.86;41.14;65.52;;
46584;Laerm;32309;48.858;8.252;2023-03-01T00:04:22;49.39;43.14;63.66;;
46584;Laerm;32309;48.858;8.252;2023-03-01T00:08:26;50.52;43.54;68.84;;
46584;Laerm;32309;48.858;8.252;2023-03-01T00:12:26;49.54;42.65;65.97;;
46584;Laerm;32309;48.858;8.252;2023-03-01T00:14:27;52.76;41.46;72.40;;
46584;Laerm;32309;48.858;8.252;2023-03-01T00:16:30;51.26;44.03;63.63;;
46584;Laerm;32309;48.858;8.252;2023-03-01T00:18:32;51.55;43.90;70.27;;
46584;Laerm;32309;48.858;8.252;2023-03-01T00:20:32;50.34;42.85;66.35;;
46584;Laerm;32309;48.858;8.252;2023-03-01T00:24:33;50.58;40.53;67.80;;
46584;Laerm;32309;48.858;8.252;2023-03-01T00:26:33;52.93;41.30;76.91;;
46584;Laerm;32309;48.858;8.252;2023-03-01T00:28:33;53.70;43.49;73.94;;
46584;Laerm;32309;48.858;8.252;2023-03-01T00:30:34;56.58;41.82;80.86;;
46584;Laerm;32309;48.858;8.252;2023-03-01T00:32:34;55.63;42.98;77.59;;
46584;Laerm;32309;48.858;8.252;2023-03-01T00:34:35;57.77;42.03;81.62;;
46584;Laerm;32309;48.858;8.252;2023-03-01T00:36:36;55.39;43.58;76.70;;
46584;Laerm;32309;48.858;8.252;2023-03-01T00:38:39;53.10;41.75;72.62;;
46584;Laerm;32309;48.858;8.252;2023-03-01T00:40:39;51.38;42.47;71.85;;
46584;Laerm;32309;48.858;8.252;2023-03-01T00:42:40;51.81;43.54;71.23;;
46584;Laerm;32309;48.858;8.252;2023-03-01T00:46:41;52.52;43.04;73.90;;
46584;Laerm;32309;48.858;8.252;2023-03-01T00:48:42;51.86;41.38;74.36;;
46584;Laerm;32309;48.858;8.252;2023-03-01T00:50:43;52.41;41.82;73.26;;
46584;Laerm;32309;48.858;8.252;2023-03-01T00:52:43;55.01;41.53;80.52;;
46584;Laerm;32309;48.858;8.252;2023-03-01T00:54:44;55.01;41.53;80.52;;
46584;Laerm;32309;48.858;8.252;2023-03-01T00:56:44;54.04;43.28;73.96;;
46584;Laerm;32309;48.858;8.252;2023-03-01T00:58:44;52.74;42.98;76.38;;
46584;Laerm;32309;48.858;8.252;2023-03-01T01:00:45;51.32;42.29;67.60;;
46584;Laerm;32309;48.858;8.252;2023-03-01T01:02:46;50.29;41.81;69.65;;
46584;Laerm;32309;48.858;8.252;2023-03-01T01:04:47;52.01;40.62;71.84;;
46584;Laerm;32309;48.858;8.252;2023-03-01T01:06:47;50.83;42.22;65.52;;
46584;Laerm;32309;48.858;8.252;2023-03-01T01:08:48;51.85;44.19;73.33;;
46584;Laerm;32309;48.858;8.252;2023-03-01T01:10:49;61.58;42.98;85.20;;
46584;Laerm;32309;48.858;8.252;2023-03-01T01:12:49;54.96;44.58;74.56;;
46584;Laerm;32309;48.858;8.252;2023-03-01T01:14:50;53.01;44.23;70.45;;
46584;Laerm;32309;48.858;8.252;2023-03-01T01:16:52;53.26;43.58;73.80;;
46584;Laerm;32309;48.858;8.252;2023-03-01T01:19:05;50.30;42.93;64.85;;
46584;Laerm;32309;48.858;8.252;2023-03-01T01:21:09;52.16;42.29;75.85;;
46584;Laerm;32309;48.858;8.252;2023-03-01T01:23:10;50.01;39.70;67.37;;
46584;Laerm;32309;48.858;8.252;2023-03-01T01:25:13;53.47;43.68;77.76;;
46584;Laerm;32309;48.858;8.252;2023-03-01T01:27:13;55.21;41.14;79.65;;
46584;Laerm;32309;48.858;8.252;2023-03-01T01:29:14;55.22;42.41;75.80;;
46584;Laerm;32309;48.858;8.252;2023-03-01T01:31:14;57.04;42.76;79.12;;
46584;Laerm;32309;48.858;8.252;2023-03-01T01:33:14;52.53;42.88;76.13;;
46584;Laerm;32309;48.858;8.252;2023-03-01T01:35:17;54.69;41.53;79.10;;
46584;Laerm;32309;48.858;8.252;2023-03-01T01:37:17;55.21;42.35;76.18;;
46584;Laerm;32309;48.858;8.252;2023-03-01T01:39:18;56.64;43.09;75.38;;
46584;Laerm;32309;48.858;8.252;2023-03-01T01:41:19;53.87;42.93;79.89;;
46584;Laerm;32309;48.858;8.252;2023-03-01T01:43:37;57.45;44.23;79.64;;
46584;Laerm;32309;48.858;8.252;2023-03-01T01:45:38;56.95;44.07;77.65;;
46584;Laerm;32309;48.858;8.252;2023-03-01T01:47:38;59.47;42.00;81.80;;
46584;Laerm;32309;48.858;8.252;2023-03-01T01:51:44;62.12;41.46;81.61;;
46584;Laerm;32309;48.858;8.252;2023-03-01T01:53:48;59.68;44.35;78.74;;
46584;Laerm;32309;48.858;8.252;2023-03-01T01:55:56;60.69;45.11;86.82;;
46584;Laerm;32309;48.858;8.252;2023-03-01T01:58:02;65.05;43.72;95.47;;
46584;Laerm;32309;48.858;8.252;2023-03-01T02:00:10;59.71;41.53;81.06;;
46584;Laerm;32309;48.858;8.252;2023-03-01T02:04:11;60.13;44.19;80.00;;
46584;Laerm;32309;48.858;8.252;2023-03-01T02:06:27;60.13;44.19;80.00;;
46584;Laerm;32309;48.858;8.252;2023-03-01T02:08:31;61.70;41.53;87.76;;
46584;Laerm;32309;48.858;8.252;2023-03-01T02:10:35;57.28;43.58;77.69;;
46584;Laerm;32309;48.858;8.252;2023-03-01T02:12:37;58.88;44.07;79.47;;
46584;Laerm;32309;48.858;8.252;2023-03-01T02:14:38;62.31;42.22;87.23;;
46584;Laerm;32309;48.858;8.252;2023-03-01T02:16:41;59.81;43.94;82.12;;
46584;Laerm;32309;48.858;8.252;2023-03-01T02:18:45;60.09;42.88;83.85;;
46584;Laerm;32309;48.858;8.252;2023-03-01T02:23:09;57.40;43.81;78.83;;
46584;Laerm;32309;48.858;8.252;2023-03-01T02:29:50;51.56;42.93;70.23;;
46584;Laerm;32309;48.858;8.252;2023-03-01T02:31:52;53.45;41.96;72.73;;
46584;Laerm;32309;48.858;8.252;2023-03-01T02:35:56;54.24;40.89;78.15;;
46584;Laerm;32309;48.858;8.252;2023-03-01T02:37:57;51.67;43.04;75.68;;
46584;Laerm;32309;48.858;8.252;2023-03-01T02:40:06;51.90;43.19;68.12;;
46584;Laerm;32309;48.858;8.252;2023-03-01T02:42:17;52.71;44.03;74.12;;
46584;Laerm;32309;48.858;8.252;2023-03-01T02:44:21;52.27;41.75;72.18;;
46584;Laerm;32309;48.858;8.252;2023-03-01T02:46:24;54.22;43.04;76.19;;
46584;Laerm;32309;48.858;8.252;2023-03-01T02:52:48;51.73;44.43;63.60;;
46584;Laerm;32309;48.858;8.252;2023-03-01T02:55:02;54.40;45.23;74.76;;
46584;Laerm;32309;48.858;8.252;2023-03-01T02:57:03;49.98;42.47;58.72;;
46584;Laerm;32309;48.858;8.252;2023-03-01T03:01:04;51.91;44.03;66.97;;
46584;Laerm;32309;48.858;8.252;2023-03-01T03:05:11;51.33;43.81;66.42;;
46584;Laerm;32309;48.858;8.252;2023-03-01T03:07:12;52.69;45.48;67.10;;
46584;Laerm;32309;48.858;8.252;2023-03-01T03:09:13;50.12;43.94;62.20;;
46584;Laerm;32309;48.858;8.252;2023-03-01T03:11:16;52.80;44.58;71.63;;
46584;Laerm;32309;48.858;8.252;2023-03-01T03:13:16;51.53;43.34;66.24;;
46584;Laerm;32309;48.858;8.252;2023-03-01T03:15:17;52.91;43.34;74.15;;
46584;Laerm;32309;48.858;8.252;2023-03-01T03:17:17;55.92;44.62;77.49;;
46584;Laerm;32309;48.858;8.252;2023-03-01T03:19:18;57.39;42.41;85.00;;
46584;Laerm;32309;48.858;8.252;2023-03-01T03:21:21;56.93;43.19;84.04;;
46584;Laerm;32309;48.858;8.252;2023-03-01T03:23:22;53.03;44.87;75.92;;
46584;Laerm;32309;48.858;8.252;2023-03-01T03:25:23;63.00;45.42;89.96;;
46584;Laerm;32309;48.858;8.252;2023-03-01T03:27:23;55.60;45.14;72.82;;
46584;Laerm;32309;48.858;8.252;2023-03-01T03:31:24;54.18;46.89;76.42;;
46584;Laerm;32309;48.858;8.252;2023-03-01T03:33:25;55.67;44.90;83.20;;
46584;Laerm;32309;48.858;8.252;2023-03-01T03:35:30;56.12;44.23;75.55;;
46584;Laerm;32309;48.858;8.252;2023-03-01T03:37:31;51.86;44.76;66.33;;
46584;Laerm;32309;48.858;8.252;2023-03-01T03:41:50;56.95;43.34;80.41;;
46584;Laerm;32309;48.858;8.252;2023-03-01T03:43:50;53.82;45.04;73.50;;
46584;Laerm;32309;48.858;8.252;2023-03-01T03:45:51;52.47;45.48;74.45;;
46584;Laerm;32309;48.858;8.252;2023-03-01T03:47:51;53.71;47.10;77.79;;
46584;Laerm;32309;48.858;8.252;2023-03-01T03:49:52;53.40;46.64;69.47;;
46584;Laerm;32309;48.858;8.252;2023-03-01T03:51:52;51.29;45.17;69.81;;
46584;Laerm;32309;48.858;8.252;2023-03-01T03:53:52;56.89;46.62;78.42;;
46584;Laerm;32309;48.858;8.252;2023-03-01T03:55:53;59.48;46.50;82.73;;
46584;Laerm;32309;48.858;8.252;2023-03-01T03:57:53;53.89;45.30;73.24;;
46584;Laerm;32309;48.858;8.252;2023-03-01T03:59:54;53.89;47.59;69.73;;
46584;Laerm;32309;48.858;8.252;2023-03-01T04:01:54;53.93;46.10;72.74;;
46584;Laerm;32309;48.858;8.252;2023-03-01T04:03:54;53.87;46.71;71.49;;
46584;Laerm;32309;48.858;8.252;2023-03-01T04:05:58;56.14;47.32;75.15;;
46584;Laerm;32309;48.858;8.252;2023-03-01T04:07:59;54.41;45.83;76.08;;
46584;Laerm;32309;48.858;8.252;2023-03-01T04:10:08;55.56;45.83;72.06;;
46584;Laerm;32309;48.858;8.252;2023-03-01T04:14:09;55.59;46.25;83.54;;
46584;Laerm;32309;48.858;8.252;2023-03-01T04:16:12;57.63;47.08;80.97;;
46584;Laerm;32309;48.858;8.252;2023-03-01T04:18:13;54.14;48.10;69.50;;
46584;Laerm;32309;48.858;8.252;2023-03-01T04:20:17;55.44;49.14;73.02;;
46584;Laerm;32309;48.858;8.252;2023-03-01T04:22:18;54.52;48.25;71.68;;
46584;Laerm;32309;48.858;8.252;2023-03-01T04:24:18;55.17;48.15;71.71;;
46584;Laerm;32309;48.858;8.252;2023-03-01T04:26:19;56.73;49.57;73.48;;
46584;Laerm;32309;48.858;8.252;2023-03-01T04:30:24;56.15;49.65;73.13;;
46584;Laerm;32309;48.858;8.252;2023-03-01T04:32:25;53.79;49.06;65.93;;
46584;Laerm;32309;48.858;8.252;2023-03-01T04:34:25;62.25;49.38;88.83;;
46584;Laerm;32309;48.858;8.252;2023-03-01T04:36:29;56.28;49.87;70.92;;
46584;Laerm;32309;48.858;8.252;2023-03-01T04:38:29;55.54;49.07;69.73;;
46584;Laerm;32309;48.858;8.252;2023-03-01T04:40:29;55.70;50.23;73.41;;
46584;Laerm;32309;48.858;8.252;2023-03-01T04:42:30;56.26;50.52;71.47;;
46584;Laerm;32309;48.858;8.252;2023-03-01T04:46:30;59.81;50.06;84.48;;
46584;Laerm;32309;48.858;8.252;2023-03-01T04:50:32;59.36;51.82;85.12;;
46584;Laerm;32309;48.858;8.252;2023-03-01T04:54:34;58.28;49.24;79.84;;
46584;Laerm;32309;48.858;8.252;2023-03-01T04:56:34;55.74;49.71;73.84;;
46584;Laerm;32309;48.858;8.252;2023-03-01T04:58:34;57.79;48.90;82.52;;
46584;Laerm;32309;48.858;8.252;2023-03-01T05:00:35;58.56;50.41;73.00;;
46584;Laerm;32309;48.858;8.252;2023-03-01T05:02:35;57.41;50.38;75.45;;
46584;Laerm;32309;48.858;8.252;2023-03-01T05:04:35;55.96;49.24;78.30;;
46584;Laerm;32309;48.858;8.252;2023-03-01T05:06:35;55.46;50.06;67.90;;
46584;Laerm;32309;48.858;8.252;2023-03-01T05:08:37;56.59;50.84;67.08;;
46584;Laerm;32309;48.858;8.252;2023-03-01T05:10:38;56.04;48.25;70.80;;
46584;Laerm;32309;48.858;8.252;2023-03-01T05:12:38;57.35;50.80;74.79;;
46584;Laerm;32309;48.858;8.252;2023-03-01T05:16:39;57.41;50.80;80.39;;
46584;Laerm;32309;48.858;8.252;2023-03-01T05:18:40;56.29;50.65;74.52;;
46584;Laerm;32309;48.858;8.252;2023-03-01T05:20:40;58.59;51.35;82.21;;
46584;Laerm;32309;48.858;8.252;2023-03-01T05:22:41;57.40;50.83;71.78;;
46584;Laerm;32309;48.858;8.252;2023-03-01T05:24:41;58.48;51.27;80.52;;
46584;Laerm;32309;48.858;8.252;2023-03-01T05:26:41;56.63;50.95;69.35;;
46584;Laerm;32309;48.858;8.252;2023-03-01T05:28:41;56.58;51.18;71.72;;
46584;Laerm;32309;48.858;8.252;2023-03-01T05:30:42;56.74;51.54;71.81;;
46584;Laerm;32309;48.858;8.252;2023-03-01T05:32:48;56.35;51.33;69.39;;
46584;Laerm;32309;48.858;8.252;2023-03-01T05:34:48;59.67;50.08;81.54;;
46584;Laerm;32309;48.858;8.252;2023-03-01T05:38:52;58.71;49.47;83.13;;
46584;Laerm;32309;48.858;8.252;2023-03-01T05:40:53;58.15;48.46;77.82;;
46584;Laerm;32309;48.858;8.252;2023-03-01T05:42:55;60.99;51.17;83.13;;
46584;Laerm;32309;48.858;8.252;2023-03-01T05:44:56;59.48;51.75;79.88;;
46584;Laerm;32309;48.858;8.252;2023-03-01T05:48:57;61.64;51.94;83.85;;
46584;Laerm;32309;48.858;8.252;2023-03-01T05:53:04;60.92;51.03;78.72;;
46584;Laerm;32309;48.858;8.252;2023-03-01T05:55:08;57.68;49.97;74.60;;
46584;Laerm;32309;48.858;8.252;2023-03-01T05:57:08;59.41;50.95;83.69;;
46584;Laerm;32309;48.858;8.252;2023-03-01T06:01:14;59.24;52.62;79.17;;
46584;Laerm;32309;48.858;8.252;2023-03-01T06:03:16;59.45;50.45;81.09;;
46584;Laerm;32309;48.858;8.252;2023-03-01T06:05:17;61.00;51.26;84.60;;
46584;Laerm;32309;48.858;8.252;2023-03-01T06:09:18;62.42;51.80;87.23;;
46584;Laerm;32309;48.858;8.252;2023-03-01T06:11:19;56.79;51.21;68.51;;
46584;Laerm;32309;48.858;8.252;2023-03-01T06:15:20;60.98;51.84;81.58;;
46584;Laerm;32309;48.858;8.252;2023-03-01T06:17:21;56.32;50.84;72.97;;
46584;Laerm;32309;48.858;8.252;2023-03-01T06:19:21;61.87;49.77;83.84;;
46584;Laerm;32309;48.858;8.252;2023-03-01T06:21:21;59.47;51.22;77.41;;
46584;Laerm;32309;48.858;8.252;2023-03-01T06:23:22;57.22;50.47;77.47;;
46584;Laerm;32309;48.858;8.252;2023-03-01T06:25:24;60.81;51.73;84.93;;
46584;Laerm;32309;48.858;8.252;2023-03-01T06:27:25;58.40;51.00;78.87;;
46584;Laerm;32309;48.858;8.252;2023-03-01T06:29:25;62.12;51.50;82.31;;
46584;Laerm;32309;48.858;8.252;2023-03-01T06:31:26;58.98;51.81;76.40;;
46584;Laerm;32309;48.858;8.252;2023-03-01T06:33:34;59.40;50.89;81.15;;
46584;Laerm;32309;48.858;8.252;2023-03-01T06:35:36;60.66;51.19;83.09;;
46584;Laerm;32309;48.858;8.252;2023-03-01T06:37:37;63.39;53.38;79.87;;
46584;Laerm;32309;48.858;8.252;2023-03-01T06:41:38;60.41;52.20;81.43;;
46584;Laerm;32309;48.858;8.252;2023-03-01T06:43:39;61.84;53.23;81.29;;
46584;Laerm;32309;48.858;8.252;2023-03-01T06:45:39;60.64;52.70;74.87;;
46584;Laerm;32309;48.858;8.252;2023-03-01T06:47:39;60.52;51.73;80.50;;
46584;Laerm;32309;48.858;8.252;2023-03-01T06:49:40;62.89;52.21;87.37;;
46584;Laerm;32309;48.858;8.252;2023-03-01T06:51:41;65.86;51.39;90.54;;
46584;Laerm;32309;48.858;8.252;2023-03-01T06:53:41;63.66;51.47;87.84;;
46584;Laerm;32309;48.858;8.252;2023-03-01T06:55:42;60.51;52.70;78.48;;
46584;Laerm;32309;48.858;8.252;2023-03-01T06:57:42;58.74;51.52;80.87;;
46584;Laerm;32309;48.858;8.252;2023-03-01T06:59:43;66.77;51.07;92.49;;
46584;Laerm;32309;48.858;8.252;2023-03-01T07:01:43;62.81;51.37;86.98;;
46584;Laerm;32309;48.858;8.252;2023-03-01T07:03:43;62.00;51.13;81.84;;
46584;Laerm;32309;48.858;8.252;2023-03-01T07:05:44;61.29;51.90;90.20;;
46584;Laerm;32309;48.858;8.252;2023-03-01T07:07:44;71.84;52.13;87.61;;
46584;Laerm;32309;48.858;8.252;2023-03-01T07:09:45;66.95;52.58;88.08;;
46584;Laerm;32309;48.858;8.252;2023-03-01T07:11:45;63.57;52.28;83.42;;
46584;Laerm;32309;48.858;8.252;2023-03-01T07:13:46;68.63;52.00;91.21;;
46584;Laerm;32309;48.858;8.252;2023-03-01T07:15:47;67.57;50.18;88.11;;
46584;Laerm;32309;48.858;8.252;2023-03-01T07:17:47;67.54;50.94;89.73;;
46584;Laerm;32309;48.858;8.252;2023-03-01T07:19:50;64.40;51.25;86.60;;
46584;Laerm;32309;48.858;8.252;2023-03-01T07:21:53;67.16;49.56;90.70;;
46584;Laerm;32309;48.858;8.252;2023-03-01T07:23:53;62.98;52.75;84.13;;
46584;Laerm;32309;48.858;8.252;2023-03-01T07:25:54;65.85;50.51;92.03;;
46584;Laerm;32309;48.858;8.252;2023-03-01T07:27:54;60.20;51.69;78.77;;
46584;Laerm;32309;48.858;8.252;2023-03-01T07:29:55;62.54;50.68;85.51;;
46584;Laerm;32309;48.858;8.252;2023-03-01T07:31:55;65.33;52.12;83.90;;
46584;Laerm;32309;48.858;8.252;2023-03-01T07:33:55;60.59;50.79;80.04;;
46584;Laerm;32309;48.858;8.252;2023-03-01T07:36:00;58.49;51.05;78.92;;
46584;Laerm;32309;48.858;8.252;2023-03-01T07:38:00;57.85;50.88;72.42;;
46584;Laerm;32309;48.858;8.252;2023-03-01T07:40:01;63.44;51.52;86.07;;
46584;Laerm;32309;48.858;8.252;2023-03-01T07:42:01;70.87;50.65;94.80;;
46584;Laerm;32309;48.858;8.252;2023-03-01T07:44:01;57.57;49.10;75.42;;
46584;Laerm;32309;48.858;8.252;2023-03-01T07:46:03;59.05;49.77;80.51;;
46584;Laerm;32309;48.858;8.252;2023-03-01T07:48:04;59.78;50.46;77.05;;
46584;Laerm;32309;48.858;8.252;2023-03-01T07:50:04;59.56;51.05;79.06;;
46584;Laerm;32309;48.858;8.252;2023-03-01T07:52:05;61.86;49.75;88.18;;
46584;Laerm;32309;48.858;8.252;2023-03-01T07:56:08;62.22;51.33;82.42;;
46584;Laerm;32309;48.858;8.252;2023-03-01T07:58:08;57.71;50.30;77.09;;
46584;Laerm;32309;48.858;8.252;2023-03-01T08:00:10;59.66;50.00;77.86;;
46584;Laerm;32309;48.858;8.252;2023-03-01T08:04:11;57.82;50.63;74.70;;
46584;Laerm;32309;48.858;8.252;2023-03-01T08:06:14;59.92;50.72;82.18;;
46584;Laerm;32309;48.858;8.252;2023-03-01T08:08:15;58.97;49.85;76.66;;
46584;Laerm;32309;48.858;8.252;2023-03-01T08:10:15;64.96;50.19;87.98;;
46584;Laerm;32309;48.858;8.252;2023-03-01T08:12:16;60.74;50.32;81.56;;
46584;Laerm;32309;48.858;8.252;2023-03-01T08:14:16;60.59;50.83;80.03;;
46584;Laerm;32309;48.858;8.252;2023-03-01T08:16:17;68.93;51.06;97.74;;
46584;Laerm;32309;48.858;8.252;2023-03-01T08:18:18;65.96;50.72;83.50;;
46584;Laerm;32309;48.858;8.252;2023-03-01T08:20:19;67.14;51.23;91.96;;
46584;Laerm;32309;48.858;8.252;2023-03-01T08:22:19;69.71;50.24;95.43;;
46584;Laerm;32309;48.858;8.252;2023-03-01T08:24:19;66.11;51.36;89.73;;
46584;Laerm;32309;48.858;8.252;2023-03-01T08:26:20;66.13;51.03;88.31;;
46584;Laerm;32309;48.858;8.252;2023-03-01T08:30:21;62.74;49.92;85.72;;
46584;Laerm;32309;48.858;8.252;2023-03-01T08:32:23;65.64;50.73;87.20;;
46584;Laerm;32309;48.858;8.252;2023-03-01T08:34:24;57.67;50.17;75.00;;
46584;Laerm;32309;48.858;8.252;2023-03-01T08:36:30;66.41;50.59;91.83;;
46584;Laerm;32309;48.858;8.252;2023-03-01T08:38:31;67.28;51.17;87.18;;
46584;Laerm;32309;48.858;8.252;2023-03-01T08:40:31;63.60;51.21;86.00;;
46584;Laerm;32309;48.858;8.252;2023-03-01T08:42:32;61.53;51.18;80.43;;
46584;Laerm;32309;48.858;8.252;2023-03-01T08:44:33;64.16;49.20;85.00;;
46584;Laerm;32309;48.858;8.252;2023-03-01T08:46:37;61.58;49.87;82.80;;
46584;Laerm;32309;48.858;8.252;2023-03-01T08:50:38;61.60;50.68;86.84;;
46584;Laerm;32309;48.858;8.252;2023-03-01T08:52:38;62.16;50.77;85.78;;
46584;Laerm;32309;48.858;8.252;2023-03-01T08:54:39;63.45;49.04;85.22;;
46584;Laerm;32309;48.858;8.252;2023-03-01T08:56:39;69.04;47.34;90.00;;
46584;Laerm;32309;48.858;8.252;2023-03-01T08:58:42;59.56;48.40;83.94;;
46584;Laerm;32309;48.858;8.252;2023-03-01T09:00:43;65.26;48.80;86.70;;
46584;Laerm;32309;48.858;8.252;2023-03-01T09:02:43;59.74;46.25;80.53;;
46584;Laerm;32309;48.858;8.252;2023-03-01T09:04:44;68.80;49.62;94.87;;
46584;Laerm;32309;48.858;8.252;2023-03-01T09:06:44;56.58;48.77;74.52;;
46584;Laerm;32309;48.858;8.252;2023-03-01T09:08:47;63.43;49.87;84.19;;
46584;Laerm;32309;48.858;8.252;2023-03-01T09:10:47;67.45;50.30;91.43;;
46584;Laerm;32309;48.858;8.252;2023-03-01T09:14:48;60.79;49.62;81.06;;
46584;Laerm;32309;48.858;8.252;2023-03-01T09:16:48;64.45;50.08;84.73;;
46584;Laerm;32309;48.858;8.252;2023-03-01T09:20:50;63.31;48.16;86.00;;
46584;Laerm;32309;48.858;8.252;2023-03-01T09:22:50;62.80;50.23;85.12;;
46584;Laerm;32309;48.858;8.252;2023-03-01T09:24:50;62.80;50.23;85.12;;
46584;Laerm;32309;48.858;8.252;2023-03-01T09:26:53;63.81;47.93;86.90;;
46584;Laerm;32309;48.858;8.252;2023-03-01T09:28:55;61.13;48.66;81.26;;
46584;Laerm;32309;48.858;8.252;2023-03-01T09:33:00;63.51;49.59;87.57;;
46584;Laerm;32309;48.858;8.252;2023-03-01T09:35:00;59.04;48.42;80.29;;
46584;Laerm;32309;48.858;8.252;2023-03-01T09:37:06;64.21;50.26;86.63;;
46584;Laerm;32309;48.858;8.252;2023-03-01T09:39:06;57.75;49.40;80.49;;
46584;Laerm;32309;48.858;8.252;2023-03-01T09:43:43;61.74;49.23;85.08;;
46584;Laerm;32309;48.858;8.252;2023-03-01T09:45:47;60.36;48.67;79.98;;
46584;Laerm;32309;48.858;8.252;2023-03-01T09:47:48;62.50;49.66;85.98;;
46584;Laerm;32309;48.858;8.252;2023-03-01T09:50:18;62.61;48.71;88.30;;
46584;Laerm;32309;48.858;8.252;2023-03-01T09:54:32;66.81;48.16;88.04;;
46584;Laerm;32309;48.858;8.252;2023-03-01T10:07:48;68.13;50.00;95.30;;
46584;Laerm;32309;48.858;8.252;2023-03-01T10:09:54;57.30;48.58;78.65;;
46584;Laerm;32309;48.858;8.252;2023-03-01T10:11:56;66.81;48.84;88.18;;
46584;Laerm;32309;48.858;8.252;2023-03-01T10:16:12;67.81;50.09;89.44;;
46584;Laerm;32309;48.858;8.252;2023-03-01T10:18:18;62.11;50.69;83.76;;
46584;Laerm;32309;48.858;8.252;2023-03-01T10:20:30;55.70;49.92;70.70;;
46584;Laerm;32309;48.858;8.252;2023-03-01T10:22:33;63.01;51.45;85.24;;
46584;Laerm;32309;48.858;8.252;2023-03-01T10:24:35;64.88;50.26;84.99;;
46584;Laerm;32309;48.858;8.252;2023-03-01T10:26:47;65.55;51.08;85.67;;
46584;Laerm;32309;48.858;8.252;2023-03-01T10:29:02;71.27;50.53;90.91;;
46584;Laerm;32309;48.858;8.252;2023-03-01T10:31:03;59.60;50.54;83.44;;
46584;Laerm;32309;48.858;8.252;2023-03-01T10:33:23;59.41;50.74;82.89;;
46584;Laerm;32309;48.858;8.252;2023-03-01T10:35:27;60.07;49.39;81.28;;
46584;Laerm;32309;48.858;8.252;2023-03-01T10:39:28;62.78;49.11;85.06;;
46584;Laerm;32309;48.858;8.252;2023-03-01T10:41:28;74.42;50.00;95.16;;
46584;Laerm;32309;48.858;8.252;2023-03-01T10:43:43;74.15;50.32;97.34;;
46584;Laerm;32309;48.858;8.252;2023-03-01T10:45:44;67.87;50.49;88.98;;
46584;Laerm;32309;48.858;8.252;2023-03-01T10:47:44;66.29;48.91;88.98;;
46584;Laerm;32309;48.858;8.252;2023-03-01T10:50:03;69.32;51.19;91.02;;
46584;Laerm;32309;48.858;8.252;2023-03-01T10:52:20;64.06;50.20;89.42;;
46584;Laerm;32309;48.858;8.252;2023-03-01T10:56:21;59.44;48.83;79.28;;
46584;Laerm;32309;48.858;8.252;2023-03-01T10:58:22;67.81;48.79;90.80;;
46584;Laerm;32309;48.858;8.252;2023-03-01T11:00:25;68.34;49.92;91.92;;
46584;Laerm;32309;48.858;8.252;2023-03-01T11:02:29;66.12;50.36;87.37;;
46584;Laerm;32309;48.858;8.252;2023-03-01T11:04:30;65.85;48.95;88.36;;
46584;Laerm;32309;48.858;8.252;2023-03-01T11:06:30;63.08;48.74;80.92;;
46584;Laerm;32309;48.858;8.252;2023-03-01T11:08:41;63.01;49.66;86.31;;
46584;Laerm;32309;48.858;8.252;2023-03-01T11:10:41;66.03;49.11;88.09;;
46584;Laerm;32309;48.858;8.252;2023-03-01T11:12:42;68.13;48.88;90.14;;
46584;Laerm;32309;48.858;8.252;2023-03-01T11:14:48;70.05;49.89;92.70;;
46584;Laerm;32309;48.858;8.252;2023-03-01T11:16:59;67.57;47.72;91.45;;
46584;Laerm;32309;48.858;8.252;2023-03-01T11:19:15;72.98;49.37;95.44;;
46584;Laerm;32309;48.858;8.252;2023-03-01T11:21:16;66.01;49.72;86.68;;
46584;Laerm;32309;48.858;8.252;2023-03-01T11:23:17;66.69;50.91;92.31;;
46584;Laerm;32309;48.858;8.252;2023-03-01T11:25:23;67.25;50.19;87.30;;
46584;Laerm;32309;48.858;8.252;2023-03-01T11:27:27;64.61;49.63;84.53;;
46584;Laerm;32309;48.858;8.252;2023-03-01T11:29:55;60.95;48.70;83.56;;
46584;Laerm;32309;48.858;8.252;2023-03-01T11:32:01;71.19;51.02;93.20;;
46584;Laerm;32309;48.858;8.252;2023-03-01T11:34:11;71.22;50.77;93.25;;
46584;Laerm;32309;48.858;8.252;2023-03-01T11:38:23;70.13;50.10;87.71;;
46584;Laerm;32309;48.858;8.252;2023-03-01T11:40:29;62.90;49.59;83.88;;
46584;Laerm;32309;48.858;8.252;2023-03-01T11:44:47;68.64;50.41;95.02;;
46584;Laerm;32309;48.858;8.252;2023-03-01T11:46:56;58.07;48.90;77.05;;
46584;Laerm;32309;48.858;8.252;2023-03-01T11:51:24;63.81;50.33;94.13;;
46584;Laerm;32309;48.858;8.252;2023-03-01T11:53:54;69.31;49.47;94.62;;
46584;Laerm;32309;48.858;8.252;2023-03-01T11:56:09;72.73;51.33;95.41;;
46584;Laerm;32309;48.858;8.252;2023-03-01T12:05:45;65.84;49.44;86.95;;
46584;Laerm;32309;48.858;8.252;2023-03-01T12:34:01;62.38;50.17;88.51;;
46584;Laerm;32309;48.858;8.252;2023-03-01T12:38:25;65.59;50.05;88.71;;
46584;Laerm;32309;48.858;8.252;2023-03-01T12:45:06;65.59;50.61;84.88;;
46584;Laerm;32309;48.858;8.252;2023-03-01T12:49:59;65.07;49.66;86.85;;
46584;Laerm;32309;48.858;8.252;2023-03-01T12:56:31;68.24;49.04;98.16;;
46584;Laerm;32309;48.858;8.252;2023-03-01T13:06:25;58.46;49.71;84.65;;
46584;Laerm;32309;48.858;8.252;2023-03-01T13:08:33;69.71;49.82;92.75;;
46584;Laerm;32309;48.858;8.252;2023-03-01T13:10:45;66.25;49.03;88.21;;
46584;Laerm;32309;48.858;8.252;2023-03-01T13:12:52;66.47;49.23;90.34;;
46584;Laerm;32309;48.858;8.252;2023-03-01T13:14:54;63.78;49.39;84.88;;
46584;Laerm;32309;48.858;8.252;2023-03-01T13:16:54;64.69;47.68;86.84;;
46584;Laerm;32309;48.858;8.252;2023-03-01T13:19:15;65.46;48.57;86.93;;
46584;Laerm;32309;48.858;8.252;2023-03-01T13:21:30;70.82;49.20;93.07;;
46584;Laerm;32309;48.858;8.252;2023-03-01T13:23:34;68.07;49.60;90.54;;
46584;Laerm;32309;48.858;8.252;2023-03-01T13:32:37;76.75;52.04;101.01;;
46584;Laerm;32309;48.858;8.252;2023-03-01T13:36:46;64.88;50.33;88.95;;
46584;Laerm;32309;48.858;8.252;2023-03-01T13:38:55;72.53;51.33;95.66;;
46584;Laerm;32309;48.858;8.252;2023-03-01T13:42:56;69.93;49.81;89.44;;
46584;Laerm;32309;48.858;8.252;2023-03-01T13:44:56;73.36;48.77;96.70;;
46584;Laerm;32309;48.858;8.252;2023-03-01T13:48:59;72.72;47.73;96.92;;
46584;Laerm;32309;48.858;8.252;2023-03-01T13:51:06;69.65;47.02;93.34;;
46584;Laerm;32309;48.858;8.252;2023-03-01T13:53:14;65.32;50.22;87.38;;
46584;Laerm;32309;48.858;8.252;2023-03-01T13:55:46;70.21;50.68;94.49;;
46584;Laerm;32309;48.858;8.252;2023-03-01T13:57:51;70.37;49.02;94.28;;
46584;Laerm;32309;48.858;8.252;2023-03-01T13:59:53;69.93;50.15;96.55;;
46584;Laerm;32309;48.858;8.252;2023-03-01T14:01:58;74.15;50.07;104.06;;
46584;Laerm;32309;48.858;8.252;2023-03-01T14:04:02;73.27;49.90;94.08;;
46584;Laerm;32309;48.858;8.252;2023-03-01T14:06:09;69.00;49.81;89.23;;
46584;Laerm;32309;48.858;8.252;2023-03-01T14:08:20;62.03;49.40;82.22;;
46584;Laerm;32309;48.858;8.252;2023-03-01T14:10:21;63.50;49.29;86.94;;
46584;Laerm;32309;48.858;8.252;2023-03-01T14:12:44;63.83;49.66;83.61;;
46584;Laerm;32309;48.858;8.252;2023-03-01T14:15:08;65.81;49.73;88.87;;
46584;Laerm;32309;48.858;8.252;2023-03-01T14:19:28;68.84;46.59;89.57;;
46584;Laerm;32309;48.858;8.252;2023-03-01T14:21:29;72.29;48.83;98.67;;